sensor_id;sensor_type;location;lat;lon;timestamp;pressure;altitude;pressure_sealevel;temperature;humidity
14594;BME280;7383;52.354;9.756;2023-04-28T00:00:09;-12671.09;;;12.41;100.00
14594;BME280;7383;52.354;9.756;2023-04-28T00:02:36;-12670.81;;;12.39;100.00
14594;BME280;7383;52.354;9.756;2023-04-28T00:05:03;-12671.34;;;12.42;100.00
14594;BME280;7383;52.354;9.756;2023-04-28T00:07:30;-12670.03;;;12.34;100.00
14594;BME280;7383;52.354;9.756;2023-04-28T00:09:57;-12670.81;;;12.39;100.00
14594;BME280;7383;52.354;9.756;2023-04-28T00:12:27;-12669.50;;;12.31;100.00
14594;BME280;7383;52.354;9.756;2023-04-28T00:14:55;-12669.59;;;12.32;100.00
14594;BME280;7383;52.354;9.756;2023-04-28T00:17:22;-12669.59;;;12.32;100.00
14594;BME280;7383;52.354;9.756;2023-04-28T00:19:52;-12670.38;;;12.37;100.00
14594;BME280;7383;52.354;9.756;2023-04-28T00:22:21;-12669.06;;;12.29;100.00
14594;BME280;7383;52.354;9.756;2023-04-28T00:24:48;-12668.81;;;12.27;100.00
14594;BME280;7383;52.354;9.756;2023-04-28T00:27:20;-12668.03;;;12.23;100.00
14594;BME280;7383;52.354;9.756;2023-04-28T00:29:47;-12668.13;;;12.23;100.00
14594;BME280;7383;52.354;9.756;2023-04-28T00:32:15;-12668.38;;;12.25;100.00
14594;BME280;7383;52.354;9.756;2023-04-28T00:34:42;-12667.59;;;12.20;100.00
14594;BME280;7383;52.354;9.756;2023-04-28T00:37:08;-12667.59;;;12.20;100.00
14594;BME280;7383;52.354;9.756;2023-04-28T00:39:38;-12667.84;;;12.22;100.00
14594;BME280;7383;52.354;9.756;2023-04-28T00:42:06;-12668.22;;;12.24;100.00
14594;BME280;7383;52.354;9.756;2023-04-28T00:44:33;-12668.81;;;12.27;100.00
14594;BME280;7383;52.354;9.756;2023-04-28T00:47:04;-12668.91;;;12.28;100.00
14594;BME280;7383;52.354;9.756;2023-04-28T00:49:36;-12669.44;;;12.31;100.00
14594;BME280;7383;52.354;9.756;2023-04-28T00:52:05;-12668.72;;;12.27;100.00
14594;BME280;7383;52.354;9.756;2023-04-28T00:54:48;-12668.38;;;12.25;100.00
14594;BME280;7383;52.354;9.756;2023-04-28T00:57:16;-12667.94;;;12.22;100.00
14594;BME280;7383;52.354;9.756;2023-04-28T00:59:43;-12668.13;;;12.23;100.00
14594;BME280;7383;52.354;9.756;2023-04-28T01:02:10;-12667.94;;;12.22;100.00
14594;BME280;7383;52.354;9.756;2023-04-28T01:04:46;-12668.28;;;12.24;100.00
14594;BME280;7383;52.354;9.756;2023-04-28T01:07:15;-12667.00;;;12.17;100.00
14594;BME280;7383;52.354;9.756;2023-04-28T01:09:42;-12667.00;;;12.17;100.00
14594;BME280;7383;52.354;9.756;2023-04-28T01:12:13;-12666.56;;;12.14;100.00
14594;BME280;7383;52.354;9.756;2023-04-28T01:14:43;-12666.63;;;12.15;100.00
14594;BME280;7383;52.354;9.756;2023-04-28T01:17:11;-12666.19;;;12.12;100.00
14594;BME280;7383;52.354;9.756;2023-04-28T01:19:45;-12666.81;;;12.16;100.00
14594;BME280;7383;52.354;9.756;2023-04-28T01:22:14;-12666.19;;;12.12;100.00
14594;BME280;7383;52.354;9.756;2023-04-28T01:24:42;-12665.16;;;12.06;100.00
14594;BME280;7383;52.354;9.756;2023-04-28T01:27:10;-12664.53;;;12.03;100.00
14594;BME280;7383;52.354;9.756;2023-04-28T01:29:40;-12664.63;;;12.03;100.00
14594;BME280;7383;52.354;9.756;2023-04-28T01:32:07;-12664.97;;;12.05;100.00
14594;BME280;7383;52.354;9.756;2023-04-28T01:34:35;-12664.72;;;12.04;100.00
14594;BME280;7383;52.354;9.756;2023-04-28T01:37:06;-12664.63;;;12.03;100.00
14594;BME280;7383;52.354;9.756;2023-04-28T01:39:32;-12663.41;;;11.96;100.00
14594;BME280;7383;52.354;9.756;2023-04-28T01:42:04;-12664.03;;;12.00;100.00
14594;BME280;7383;52.354;9.756;2023-04-28T01:44:31;-12664.28;;;12.01;100.00
14594;BME280;7383;52.354;9.756;2023-04-28T01:46:59;-12664.19;;;12.01;100.00
14594;BME280;7383;52.354;9.756;2023-04-28T01:49:26;-12664.53;;;12.03;100.00
14594;BME280;7383;52.354;9.756;2023-04-28T01:52:04;-12664.47;;;12.02;100.00
14594;BME280;7383;52.354;9.756;2023-04-28T01:54:31;-12664.91;;;12.05;100.00
14594;BME280;7383;52.354;9.756;2023-04-28T01:56:59;-12664.81;;;12.04;100.00
14594;BME280;7383;52.354;9.756;2023-04-28T01:59:30;-12664.72;;;12.04;100.00
14594;BME280;7383;52.354;9.756;2023-04-28T02:01:57;-12664.91;;;12.05;100.00
14594;BME280;7383;52.354;9.756;2023-04-28T02:04:39;-12664.91;;;12.05;100.00
14594;BME280;7383;52.354;9.756;2023-04-28T02:07:06;-12664.47;;;12.02;100.00
14594;BME280;7383;52.354;9.756;2023-04-28T02:09:37;-12663.31;;;11.96;100.00
14594;BME280;7383;52.354;9.756;2023-04-28T02:12:13;-12662.44;;;11.91;100.00
14594;BME280;7383;52.354;9.756;2023-04-28T02:14:50;-12661.22;;;11.83;100.00
14594;BME280;7383;52.354;9.756;2023-04-28T02:17:18;-12660.28;;;11.78;100.00
14594;BME280;7383;52.354;9.756;2023-04-28T02:19:46;-12659.75;;;11.75;100.00
14594;BME280;7383;52.354;9.756;2023-04-28T02:22:15;-12660.09;;;11.77;100.00
14594;BME280;7383;52.354;9.756;2023-04-28T02:24:41;-12660.63;;;11.80;100.00
14594;BME280;7383;52.354;9.756;2023-04-28T02:27:08;-12659.75;;;11.75;100.00
14594;BME280;7383;52.354;9.756;2023-04-28T02:29:37;-12659.84;;;11.75;100.00
14594;BME280;7383;52.354;9.756;2023-04-28T02:32:05;-12659.50;;;11.73;100.00
14594;BME280;7383;52.354;9.756;2023-04-28T02:34:32;-12659.94;;;11.76;100.00
14594;BME280;7383;52.354;9.756;2023-04-28T02:37:00;-12659.06;;;11.71;100.00
14594;BME280;7383;52.354;9.756;2023-04-28T02:39:26;-12659.66;;;11.74;100.00
14594;BME280;7383;52.354;9.756;2023-04-28T02:41:54;-12659.41;;;11.73;100.00
14594;BME280;7383;52.354;9.756;2023-04-28T02:44:23;-12659.94;;;11.76;100.00
14594;BME280;7383;52.354;9.756;2023-04-28T02:46:51;-12658.69;;;11.69;100.00
14594;BME280;7383;52.354;9.756;2023-04-28T02:49:19;-12658.28;;;11.66;100.00
14594;BME280;7383;52.354;9.756;2023-04-28T02:51:48;-12658.28;;;11.66;100.00
14594;BME280;7383;52.354;9.756;2023-04-28T02:54:16;-12657.75;;;11.63;100.00
14594;BME280;7383;52.354;9.756;2023-04-28T02:56:51;-12658.00;;;11.65;100.00
14594;BME280;7383;52.354;9.756;2023-04-28T02:59:18;-12657.91;;;11.64;100.00
14594;BME280;7383;52.354;9.756;2023-04-28T03:01:46;-12657.84;;;11.64;100.00
14594;BME280;7383;52.354;9.756;2023-04-28T03:04:14;-12657.13;;;11.60;100.00
14594;BME280;7383;52.354;9.756;2023-04-28T03:06:46;-12657.75;;;11.63;100.00
14594;BME280;7383;52.354;9.756;2023-04-28T03:09:15;-12657.47;;;11.62;100.00
14594;BME280;7383;52.354;9.756;2023-04-28T03:11:41;-12657.31;;;11.61;100.00
14594;BME280;7383;52.354;9.756;2023-04-28T03:14:08;-12657.41;;;11.61;100.00
14594;BME280;7383;52.354;9.756;2023-04-28T03:16:35;-12656.78;;;11.58;100.00
14594;BME280;7383;52.354;9.756;2023-04-28T03:19:02;-12656.34;;;11.55;100.00
14594;BME280;7383;52.354;9.756;2023-04-28T04:23:35;-12655.38;;;11.50;100.00
14594;BME280;7383;52.354;9.756;2023-04-28T04:26:01;-12655.47;;;11.50;100.00
14594;BME280;7383;52.354;9.756;2023-04-28T04:28:30;-12655.38;;;11.50;100.00
14594;BME280;7383;52.354;9.756;2023-04-28T04:30:58;-12655.91;;;11.53;100.00
14594;BME280;7383;52.354;9.756;2023-04-28T04:33:24;-12655.31;;;11.49;100.00
14594;BME280;7383;52.354;9.756;2023-04-28T04:35:51;-12655.22;;;11.49;100.00
14594;BME280;7383;52.354;9.756;2023-04-28T04:40:58;-12656.53;;;11.56;100.00
14594;BME280;7383;52.354;9.756;2023-04-28T04:43:24;-12657.03;;;11.59;100.00
14594;BME280;7383;52.354;9.756;2023-04-28T04:45:51;-12656.69;;;11.57;100.00
14594;BME280;7383;52.354;9.756;2023-04-28T04:48:18;-12655.91;;;11.53;100.00
14594;BME280;7383;52.354;9.756;2023-04-28T04:50:45;-12655.13;;;11.48;100.00
14594;BME280;7383;52.354;9.756;2023-04-28T04:53:11;-12655.81;;;11.52;100.00
14594;BME280;7383;52.354;9.756;2023-04-28T04:55:38;-12656.63;;;11.57;100.00
14594;BME280;7383;52.354;9.756;2023-04-28T04:58:06;-12656.00;;;11.53;100.00
14594;BME280;7383;52.354;9.756;2023-04-28T05:00:32;-12656.44;;;11.56;100.00
14594;BME280;7383;52.354;9.756;2023-04-28T05:03:00;-12656.69;;;11.57;100.00
14594;BME280;7383;52.354;9.756;2023-04-28T05:05:28;-12658.28;;;11.66;100.00
14594;BME280;7383;52.354;9.756;2023-04-28T05:07:54;-12658.97;;;11.70;100.00
14594;BME280;7383;52.354;9.756;2023-04-28T05:10:21;-12659.84;;;11.75;100.00
14594;BME280;7383;52.354;9.756;2023-04-28T05:12:47;-12659.56;;;11.74;100.00
14594;BME280;7383;52.354;9.756;2023-04-28T05:15:18;-12659.56;;;11.74;100.00
14594;BME280;7383;52.354;9.756;2023-04-28T05:17:44;-12659.84;;;11.75;100.00
14594;BME280;7383;52.354;9.756;2023-04-28T05:20:11;-12660.00;;;11.76;100.00
14594;BME280;7383;52.354;9.756;2023-04-28T05:22:41;-12660.44;;;11.79;100.00
14594;BME280;7383;52.354;9.756;2023-04-28T05:25:14;-12661.16;;;11.83;100.00
14594;BME280;7383;52.354;9.756;2023-04-28T05:27:45;-12660.19;;;11.77;100.00
14594;BME280;7383;52.354;9.756;2023-04-28T05:30:16;-12660.28;;;11.78;100.00
14594;BME280;7383;52.354;9.756;2023-04-28T05:32:43;-12660.53;;;11.79;100.00
14594;BME280;7383;52.354;9.756;2023-04-28T05:35:11;-12661.94;;;11.88;100.00
14594;BME280;7383;52.354;9.756;2023-04-28T05:37:39;-12660.81;;;11.81;100.00
14594;BME280;7383;52.354;9.756;2023-04-28T05:40:08;-12661.94;;;11.88;100.00
14594;BME280;7383;52.354;9.756;2023-04-28T05:42:43;-12663.16;;;11.95;100.00
14594;BME280;7383;52.354;9.756;2023-04-28T05:45:10;-12662.19;;;11.89;100.00
14594;BME280;7383;52.354;9.756;2023-04-28T05:48:11;-12662.53;;;11.91;100.00
14594;BME280;7383;52.354;9.756;2023-04-28T05:50:39;-12662.72;;;11.92;100.00
14594;BME280;7383;52.354;9.756;2023-04-28T05:59:15;-12665.94;;;12.11;100.00
14594;BME280;7383;52.354;9.756;2023-04-28T06:01:48;-12666.19;;;12.12;100.00
14594;BME280;7383;52.354;9.756;2023-04-28T06:04:19;-12666.03;;;12.11;100.00
14594;BME280;7383;52.354;9.756;2023-04-28T06:06:50;-12667.41;;;12.19;100.00
14594;BME280;7383;52.354;9.756;2023-04-28T06:09:17;-12668.91;;;12.28;100.00
14594;BME280;7383;52.354;9.756;2023-04-28T06:11:44;-12670.28;;;12.36;100.00
14594;BME280;7383;52.354;9.756;2023-04-28T06:14:14;-12670.28;;;12.36;100.00
14594;BME280;7383;52.354;9.756;2023-04-28T06:16:42;-12671.00;;;12.40;100.00
14594;BME280;7383;52.354;9.756;2023-04-28T06:19:13;-12671.59;;;12.44;100.00
14594;BME280;7383;52.354;9.756;2023-04-28T06:21:44;-12672.38;;;12.48;100.00
14594;BME280;7383;52.354;9.756;2023-04-28T06:24:33;-12673.00;;;12.52;100.00
14594;BME280;7383;52.354;9.756;2023-04-28T06:27:14;-12672.66;;;12.50;100.00
14594;BME280;7383;52.354;9.756;2023-04-28T06:29:43;-12672.91;;;12.51;100.00
14594;BME280;7383;52.354;9.756;2023-04-28T06:32:13;-12673.97;;;12.57;100.00
14594;BME280;7383;52.354;9.756;2023-04-28T06:34:40;-12675.09;;;12.64;100.00
14594;BME280;7383;52.354;9.756;2023-04-28T06:37:11;-12675.97;;;12.69;100.00
14594;BME280;7383;52.354;9.756;2023-04-28T06:39:39;-12677.34;;;12.77;100.00
14594;BME280;7383;52.354;9.756;2023-04-28T06:42:07;-12679.00;;;12.87;100.00
14594;BME280;7383;52.354;9.756;2023-04-28T06:44:35;-12679.44;;;12.89;100.00
14594;BME280;7383;52.354;9.756;2023-04-28T06:47:06;-12679.69;;;12.91;100.00
14594;BME280;7383;52.354;9.756;2023-04-28T06:49:39;-12681.09;;;12.99;100.00
14594;BME280;7383;52.354;9.756;2023-04-28T06:52:09;-12680.66;;;12.96;100.00
14594;BME280;7383;52.354;9.756;2023-04-28T06:54:36;-12682.47;;;13.07;100.00
14594;BME280;7383;52.354;9.756;2023-04-28T06:57:16;-12683.44;;;13.12;100.00
14594;BME280;7383;52.354;9.756;2023-04-28T06:59:45;-12683.69;;;13.14;100.00
14594;BME280;7383;52.354;9.756;2023-04-28T07:02:12;-12684.56;;;13.19;100.00
14594;BME280;7383;52.354;9.756;2023-04-28T07:04:47;-12684.22;;;13.17;100.00
14594;BME280;7383;52.354;9.756;2023-04-28T07:07:15;-12684.66;;;13.19;100.00
14594;BME280;7383;52.354;9.756;2023-04-28T07:09:42;-12686.66;;;13.31;100.00
14594;BME280;7383;52.354;9.756;2023-04-28T07:12:19;-12687.09;;;13.34;100.00
14594;BME280;7383;52.354;9.756;2023-04-28T07:14:49;-12688.84;;;13.44;100.00
14594;BME280;7383;52.354;9.756;2023-04-28T07:17:15;-12688.50;;;13.42;100.00
14594;BME280;7383;52.354;9.756;2023-04-28T07:19:42;-12691.34;;;13.58;100.00
14594;BME280;7383;52.354;9.756;2023-04-28T07:22:10;-12693.97;;;13.73;100.00
14594;BME280;7383;52.354;9.756;2023-04-28T09:50:02;-12729.72;;;15.82;100.00
14594;BME280;7383;52.354;9.756;2023-04-28T09:54:11;-12728.31;;;15.73;100.00
14594;BME280;7383;52.354;9.756;2023-04-28T10:06:57;-12726.84;;;15.65;100.00
14594;BME280;7383;52.354;9.756;2023-04-28T10:09:35;-12725.91;;;15.59;100.00
14594;BME280;7383;52.354;9.756;2023-04-28T10:12:09;-12724.25;;;15.50;100.00
14594;BME280;7383;52.354;9.756;2023-04-28T10:14:38;-12723.72;;;15.47;100.00
14594;BME280;7383;52.354;9.756;2023-04-28T10:17:06;-12722.94;;;15.42;100.00
14594;BME280;7383;52.354;9.756;2023-04-28T10:19:51;-12723.22;;;15.44;100.00
14594;BME280;7383;52.354;9.756;2023-04-28T10:22:47;-12724.25;;;15.50;100.00
14594;BME280;7383;52.354;9.756;2023-04-28T10:38:07;-12727.81;;;15.70;100.00
14594;BME280;7383;52.354;9.756;2023-04-28T10:40:57;-12728.94;;;15.77;100.00
14594;BME280;7383;52.354;9.756;2023-04-28T10:52:49;-12733.59;;;16.04;100.00
14594;BME280;7383;52.354;9.756;2023-04-28T10:58:52;-12733.25;;;16.02;100.00
14594;BME280;7383;52.354;9.756;2023-04-28T11:01:27;-12733.69;;;16.05;100.00
14594;BME280;7383;52.354;9.756;2023-04-28T11:03:58;-12733.94;;;16.06;100.00
14594;BME280;7383;52.354;9.756;2023-04-28T11:06:30;-12735.06;;;16.13;100.00
14594;BME280;7383;52.354;9.756;2023-04-28T11:08:59;-12735.84;;;16.17;100.00
14594;BME280;7383;52.354;9.756;2023-04-28T11:11:29;-12736.19;;;16.19;100.00
14594;BME280;7383;52.354;9.756;2023-04-28T11:14:31;-12736.19;;;16.19;100.00
14594;BME280;7383;52.354;9.756;2023-04-28T11:17:00;-12735.84;;;16.17;100.00
14594;BME280;7383;52.354;9.756;2023-04-28T11:19:28;-12735.78;;;16.17;100.00
14594;BME280;7383;52.354;9.756;2023-04-28T11:21:56;-12736.47;;;16.21;100.00
14594;BME280;7383;52.354;9.756;2023-04-28T11:24:24;-12737.06;;;16.24;100.00
14594;BME280;7383;52.354;9.756;2023-04-28T11:26:53;-12739.06;;;16.36;100.00
14594;BME280;7383;52.354;9.756;2023-04-28T11:29:35;-12741.47;;;16.50;100.00
14594;BME280;7383;52.354;9.756;2023-04-28T11:32:02;-12742.34;;;16.55;100.00
14594;BME280;7383;52.354;9.756;2023-04-28T11:34:28;-12743.81;;;16.64;100.00
14594;BME280;7383;52.354;9.756;2023-04-28T11:36:55;-12744.06;;;16.65;100.00
14594;BME280;7383;52.354;9.756;2023-04-28T11:39:26;-12744.84;;;16.70;100.00
14594;BME280;7383;52.354;9.756;2023-04-28T11:41:56;-12743.66;;;16.63;100.00
14594;BME280;7383;52.354;9.756;2023-04-28T11:44:25;-12742.78;;;16.58;100.00
14594;BME280;7383;52.354;9.756;2023-04-28T11:46:54;-12744.00;;;16.65;100.00
14594;BME280;7383;52.354;9.756;2023-04-28T11:49:25;-12742.16;;;16.54;100.00
14594;BME280;7383;52.354;9.756;2023-04-28T11:51:53;-12741.91;;;16.53;100.00
14594;BME280;7383;52.354;9.756;2023-04-28T11:54:23;-12740.78;;;16.46;100.00
14594;BME280;7383;52.354;9.756;2023-04-28T11:56:50;-12740.28;;;16.43;100.00
14594;BME280;7383;52.354;9.756;2023-04-28T11:59:17;-12739.06;;;16.36;100.00
14594;BME280;7383;52.354;9.756;2023-04-28T12:01:50;-12738.03;;;16.30;100.00
14594;BME280;7383;52.354;9.756;2023-04-28T12:04:29;-12737.84;;;16.29;100.00
14594;BME280;7383;52.354;9.756;2023-04-28T12:07:00;-12737.31;;;16.26;100.00
14594;BME280;7383;52.354;9.756;2023-04-28T12:09:27;-12736.81;;;16.23;100.00
14594;BME280;7383;52.354;9.756;2023-04-28T12:11:55;-12737.06;;;16.24;100.00
14594;BME280;7383;52.354;9.756;2023-04-28T12:14:24;-12736.47;;;16.21;100.00
14594;BME280;7383;52.354;9.756;2023-04-28T12:16:53;-12736.13;;;16.19;100.00
14594;BME280;7383;52.354;9.756;2023-04-28T12:19:21;-12735.59;;;16.16;100.00
14594;BME280;7383;52.354;9.756;2023-04-28T12:22:00;-12735.84;;;16.17;100.00
14594;BME280;7383;52.354;9.756;2023-04-28T12:24:28;-12734.81;;;16.11;100.00
14594;BME280;7383;52.354;9.756;2023-04-28T12:27:12;-12736.03;;;16.18;100.00
14594;BME280;7383;52.354;9.756;2023-04-28T12:29:40;-12737.06;;;16.24;100.00
14594;BME280;7383;52.354;9.756;2023-04-28T12:32:12;-12738.03;;;16.30;100.00
14594;BME280;7383;52.354;9.756;2023-04-28T12:34:43;-12739.75;;;16.40;100.00
14594;BME280;7383;52.354;9.756;2023-04-28T12:37:16;-12741.81;;;16.52;100.00
14594;BME280;7383;52.354;9.756;2023-04-28T12:39:53;-12744.69;;;16.69;100.00
14594;BME280;7383;52.354;9.756;2023-04-28T12:42:21;-12744.34;;;16.67;100.00
14594;BME280;7383;52.354;9.756;2023-04-28T12:44:52;-12742.44;;;16.56;100.00
14594;BME280;7383;52.354;9.756;2023-04-28T12:47:18;-12742.00;;;16.53;100.00
14594;BME280;7383;52.354;9.756;2023-04-28T12:49:46;-12741.03;;;16.48;100.00
14594;BME280;7383;52.354;9.756;2023-04-28T12:52:18;-12740.53;;;16.45;100.00
14594;BME280;7383;52.354;9.756;2023-04-28T12:54:47;-12740.44;;;16.44;100.00
14594;BME280;7383;52.354;9.756;2023-04-28T13:03:47;-12736.63;;;16.22;100.00
14594;BME280;7383;52.354;9.756;2023-04-28T13:06:34;-12733.88;;;16.06;100.00
14594;BME280;7383;52.354;9.756;2023-04-28T13:12:12;-12730.91;;;15.89;100.00
14594;BME280;7383;52.354;9.756;2023-04-28T13:14:41;-12729.19;;;15.79;100.00
14594;BME280;7383;52.354;9.756;2023-04-28T13:17:14;-12729.38;;;15.80;100.00
14594;BME280;7383;52.354;9.756;2023-04-28T13:19:44;-12730.84;;;15.88;100.00
14594;BME280;7383;52.354;9.756;2023-04-28T13:22:20;-12732.22;;;15.96;100.00
14594;BME280;7383;52.354;9.756;2023-04-28T13:25:04;-12732.75;;;15.99;100.00
14594;BME280;7383;52.354;9.756;2023-04-28T13:27:36;-12734.31;;;16.08;100.00
14594;BME280;7383;52.354;9.756;2023-04-28T13:30:31;-12735.06;;;16.13;100.00
14594;BME280;7383;52.354;9.756;2023-04-28T13:33:13;-12736.13;;;16.19;100.00
14594;BME280;7383;52.354;9.756;2023-04-28T13:35:41;-12736.91;;;16.23;100.00
14594;BME280;7383;52.354;9.756;2023-04-28T13:38:10;-12737.06;;;16.24;100.00
14594;BME280;7383;52.354;9.756;2023-04-28T13:40:39;-12737.31;;;16.26;100.00
14594;BME280;7383;52.354;9.756;2023-04-28T13:43:08;-12737.25;;;16.25;100.00
14594;BME280;7383;52.354;9.756;2023-04-28T13:45:35;-12735.50;;;16.15;100.00
14594;BME280;7383;52.354;9.756;2023-04-28T13:48:04;-12735.00;;;16.12;100.00
14594;BME280;7383;52.354;9.756;2023-04-28T13:50:30;-12733.44;;;16.03;100.00
14594;BME280;7383;52.354;9.756;2023-04-28T13:52:59;-12733.59;;;16.04;100.00
14594;BME280;7383;52.354;9.756;2023-04-28T13:55:26;-12733.19;;;16.02;100.00
14594;BME280;7383;52.354;9.756;2023-04-28T13:57:53;-12732.81;;;16.00;100.00
14594;BME280;7383;52.354;9.756;2023-04-28T14:00:21;-12732.03;;;15.95;100.00
14594;BME280;7383;52.354;9.756;2023-04-28T14:02:49;-12731.97;;;15.95;100.00
14594;BME280;7383;52.354;9.756;2023-04-28T14:05:20;-12732.56;;;15.98;100.00
14594;BME280;7383;52.354;9.756;2023-04-28T14:07:47;-12733.09;;;16.01;100.00
14594;BME280;7383;52.354;9.756;2023-04-28T14:10:15;-12733.53;;;16.04;100.00
14594;BME280;7383;52.354;9.756;2023-04-28T14:12:43;-12733.78;;;16.05;100.00
14594;BME280;7383;52.354;9.756;2023-04-28T14:15:10;-12733.00;;;16.01;100.00
14594;BME280;7383;52.354;9.756;2023-04-28T14:17:41;-12733.25;;;16.02;100.00
14594;BME280;7383;52.354;9.756;2023-04-28T14:20:10;-12733.09;;;16.01;100.00
14594;BME280;7383;52.354;9.756;2023-04-28T14:22:37;-12732.91;;;16.00;100.00
14594;BME280;7383;52.354;9.756;2023-04-28T14:25:06;-12731.78;;;15.94;100.00
14594;BME280;7383;52.354;9.756;2023-04-28T14:27:33;-12731.53;;;15.92;100.00
14594;BME280;7383;52.354;9.756;2023-04-28T14:30:03;-12732.22;;;15.96;100.00
14594;BME280;7383;52.354;9.756;2023-04-28T14:32:30;-12729.78;;;15.82;100.00
14594;BME280;7383;52.354;9.756;2023-04-28T14:34:59;-12729.44;;;15.80;100.00
14594;BME280;7383;52.354;9.756;2023-04-28T14:37:25;-12729.72;;;15.82;100.00
14594;BME280;7383;52.354;9.756;2023-04-28T14:39:53;-12729.88;;;15.83;100.00
14594;BME280;7383;52.354;9.756;2023-04-28T14:42:20;-12730.66;;;15.87;100.00
14594;BME280;7383;52.354;9.756;2023-04-28T14:44:50;-12730.66;;;15.87;100.00
14594;BME280;7383;52.354;9.756;2023-04-28T14:47:20;-12729.88;;;15.83;100.00
14594;BME280;7383;52.354;9.756;2023-04-28T14:49:47;-12730.50;;;15.86;100.00
14594;BME280;7383;52.354;9.756;2023-04-28T14:52:15;-12730.75;;;15.88;100.00
14594;BME280;7383;52.354;9.756;2023-04-28T14:54:43;-12732.56;;;15.98;100.00
14594;BME280;7383;52.354;9.756;2023-04-28T14:57:12;-12734.56;;;16.10;100.00
14594;BME280;7383;52.354;9.756;2023-04-28T14:59:40;-12738.28;;;16.32;100.00
14594;BME280;7383;52.354;9.756;2023-04-28T15:02:12;-12741.22;;;16.49;100.00
14594;BME280;7383;52.354;9.756;2023-04-28T15:10:05;-12740.88;;;16.47;100.00
14594;BME280;7383;52.354;9.756;2023-04-28T15:12:44;-12739.41;;;16.38;100.00
14594;BME280;7383;52.354;9.756;2023-04-28T15:15:12;-12738.03;;;16.30;100.00
14594;BME280;7383;52.354;9.756;2023-04-28T15:18:01;-12737.41;;;16.27;100.00
14594;BME280;7383;52.354;9.756;2023-04-28T15:20:30;-12737.59;;;16.28;100.00
14594;BME280;7383;52.354;9.756;2023-04-28T15:23:00;-12738.53;;;16.33;100.00
14594;BME280;7383;52.354;9.756;2023-04-28T15:25:29;-12741.66;;;16.51;100.00
14594;BME280;7383;52.354;9.756;2023-04-28T15:27:58;-12747.78;;;16.87;100.00
14594;BME280;7383;52.354;9.756;2023-04-28T15:30:25;-12751.94;;;17.11;100.00
14594;BME280;7383;52.354;9.756;2023-04-28T15:33:01;-12763.16;;;17.77;100.00
14594;BME280;7383;52.354;9.756;2023-04-28T15:35:28;-12791.44;;;19.43;100.00
14594;BME280;7383;52.354;9.756;2023-04-28T15:38:12;-12794.47;;;19.60;100.00
14594;BME280;7383;52.354;9.756;2023-04-28T15:40:45;-12786.53;;;19.14;100.00
14594;BME280;7383;52.354;9.756;2023-04-28T15:43:12;-12783.53;;;18.96;100.00
14594;BME280;7383;52.354;9.756;2023-04-28T15:45:38;-12772.84;;;18.34;100.00
14594;BME280;7383;52.354;9.756;2023-04-28T15:48:07;-12766.44;;;17.96;100.00
14594;BME280;7383;52.354;9.756;2023-04-28T15:50:36;-12761.00;;;17.64;100.00
14594;BME280;7383;52.354;9.756;2023-04-28T15:55:50;-12753.94;;;17.23;100.00
14594;BME280;7383;52.354;9.756;2023-04-28T15:58:27;-12751.78;;;17.10;100.00
14594;BME280;7383;52.354;9.756;2023-04-28T16:00:56;-12749.44;;;16.97;100.00
14594;BME280;7383;52.354;9.756;2023-04-28T16:03:23;-12744.69;;;16.69;100.00
14594;BME280;7383;52.354;9.756;2023-04-28T16:05:52;-12742.44;;;16.56;100.00
14594;BME280;7383;52.354;9.756;2023-04-28T16:08:18;-12740.88;;;16.47;100.00
14594;BME280;7383;52.354;9.756;2023-04-28T16:11:16;-12740.00;;;16.42;100.00
14594;BME280;7383;52.354;9.756;2023-04-28T16:13:53;-12737.94;;;16.30;100.00
14594;BME280;7383;52.354;9.756;2023-04-28T16:20:10;-12735.34;;;16.14;100.00
14594;BME280;7383;52.354;9.756;2023-04-28T16:22:39;-12734.38;;;16.09;100.00
14594;BME280;7383;52.354;9.756;2023-04-28T16:25:16;-12734.91;;;16.12;100.00
14594;BME280;7383;52.354;9.756;2023-04-28T16:28:20;-12733.78;;;16.05;100.00
14594;BME280;7383;52.354;9.756;2023-04-28T16:30:50;-12732.56;;;15.98;100.00
14594;BME280;7383;52.354;9.756;2023-04-28T16:33:59;-12732.41;;;15.97;100.00
14594;BME280;7383;52.354;9.756;2023-04-28T16:43:15;-12730.91;;;15.89;100.00
14594;BME280;7383;52.354;9.756;2023-04-28T16:45:46;-12730.41;;;15.86;100.00
14594;BME280;7383;52.354;9.756;2023-04-28T16:48:14;-12729.72;;;15.82;100.00
14594;BME280;7383;52.354;9.756;2023-04-28T16:50:57;-12729.28;;;15.79;100.00
14594;BME280;7383;52.354;9.756;2023-04-28T16:53:26;-12728.25;;;15.73;100.00
14594;BME280;7383;52.354;9.756;2023-04-28T16:55:52;-12727.88;;;15.71;100.00
14594;BME280;7383;52.354;9.756;2023-04-28T16:58:22;-12726.94;;;15.65;100.00
14594;BME280;7383;52.354;9.756;2023-04-28T17:00:56;-12726.25;;;15.61;100.00
14594;BME280;7383;52.354;9.756;2023-04-28T17:03:29;-12726.16;;;15.61;100.00
14594;BME280;7383;52.354;9.756;2023-04-28T17:05:55;-12726.25;;;15.61;100.00
14594;BME280;7383;52.354;9.756;2023-04-28T17:08:39;-12726.69;;;15.64;100.00
14594;BME280;7383;52.354;9.756;2023-04-28T17:14:27;-12727.63;;;15.69;100.00
14594;BME280;7383;52.354;9.756;2023-04-28T17:17:08;-12726.94;;;15.65;100.00
14594;BME280;7383;52.354;9.756;2023-04-28T17:20:01;-12727.53;;;15.69;100.00
14594;BME280;7383;52.354;9.756;2023-04-28T17:26:02;-12726.84;;;15.65;100.00
14594;BME280;7383;52.354;9.756;2023-04-28T18:15:51;-12719.31;;;15.21;100.00
14594;BME280;7383;52.354;9.756;2023-04-28T18:18:18;-12719.47;;;15.22;100.00
14594;BME280;7383;52.354;9.756;2023-04-28T18:20:45;-12719.81;;;15.24;100.00
14594;BME280;7383;52.354;9.756;2023-04-28T18:23:12;-12719.47;;;15.22;100.00
14594;BME280;7383;52.354;9.756;2023-04-28T18:26:06;-12719.75;;;15.23;100.00
14594;BME280;7383;52.354;9.756;2023-04-28T18:30:02;-12719.41;;;15.21;100.00
14594;BME280;7383;52.354;9.756;2023-04-28T18:32:04;-12719.06;;;15.19;100.00
14594;BME280;7383;52.354;9.756;2023-04-28T18:34:38;-12718.97;;;15.19;100.00
14594;BME280;7383;52.354;9.756;2023-04-28T18:37:25;-12718.34;;;15.15;100.00
14594;BME280;7383;52.354;9.756;2023-04-28T18:40:36;-12717.91;;;15.13;100.00
14594;BME280;7383;52.354;9.756;2023-04-28T18:46:02;-12717.31;;;15.09;100.00
14594;BME280;7383;52.354;9.756;2023-04-28T18:48:54;-12717.31;;;15.09;100.00